PWSweather.com
Personal Weather Stations
Station Observations

OlomoucCZ

Lat: 49.5936202181, Lon: 17.2276005149

Elevation: 752

Station Type: Davis Vantage Pro 2 Activ

http://infopocasi-olomouc.cz

High Low Average
Temperature 45.1°F7.3°C 32.9°F0.5°C 39.8°F4.3°C
Dew Point 38.6°F3.7°C 30.3°F-0.9°C 34.5°F1.4°C
Winds 15.0 mph 24.1 kmh 3.5 mph 5.6 kmh 9.0 mph SE14.5 kmh SE
Wind Gusts 20.7 mph33.3 kmh 4.6 mph7.4 kmh 11.0 mph17.7 kmh
Humidity 90% 75% 81%
Pressure 29.75 in1007.5 mb 29.65 in1004.1 mb -
Precipitation 0.00 in0.0 mm - -
Hour Temp Dew Point Humidity Winds Wind Gusts Pressure Precip Precip Rate Daily Precip Total
12:00 AM 36.3°F2.4°C 32.5°F0.3°C 86% 4.6 mph ESE7.4 kmh ESE 11.5 mph18.5 kmh 29.75 in1007.5 mb - 0.00 in0.0 mm 0.00 in0.0 mm
12:30 AM 36.2°F2.3°C 32.4°F0.2°C 86% 8.1 mph SE13.0 kmh SE 11.5 mph18.5 kmh 29.75 in1007.5 mb - 0.00 in0.0 mm 0.00 in0.0 mm
01:00 AM 36.3°F2.4°C 32.5°F0.3°C 86% 9.2 mph SE14.8 kmh SE 11.5 mph18.5 kmh 29.74 in1007.1 mb - 0.00 in0.0 mm 0.00 in0.0 mm
01:30 AM 36.0°F2.2°C 32.2°F0.1°C 86% 10.4 mph SE16.7 kmh SE 12.7 mph20.4 kmh 29.73 in1006.8 mb - 0.00 in0.0 mm 0.00 in0.0 mm
02:00 AM 36.1°F2.3°C 32.0°F0.0°C 85% 8.1 mph SE13.0 kmh SE 10.4 mph16.7 kmh 29.73 in1006.8 mb - 0.00 in0.0 mm 0.00 in0.0 mm
02:30 AM 35.5°F1.9°C 31.7°F-0.2°C 86% 9.2 mph SE14.8 kmh SE 11.5 mph18.5 kmh 29.73 in1006.8 mb - 0.00 in0.0 mm 0.00 in0.0 mm
03:00 AM 34.8°F1.6°C 31.3°F-0.4°C 87% 8.1 mph SE13.0 kmh SE 10.4 mph16.7 kmh 29.72 in1006.4 mb - 0.00 in0.0 mm 0.00 in0.0 mm
03:30 AM 34.4°F1.3°C 31.2°F-0.4°C 88% 4.6 mph ESE7.4 kmh ESE 6.9 mph11.1 kmh 29.71 in1006.1 mb - 0.00 in0.0 mm 0.00 in0.0 mm
04:00 AM 34.8°F1.6°C 31.3°F-0.4°C 87% 8.1 mph SE13.0 kmh SE 10.4 mph16.7 kmh 29.71 in1006.1 mb - 0.00 in0.0 mm 0.00 in0.0 mm
04:30 AM 34.1°F1.2°C 31.0°F-0.6°C 88% 5.8 mph SE9.3 kmh SE 8.1 mph13.0 kmh 29.71 in1006.1 mb - 0.00 in0.0 mm 0.00 in0.0 mm
05:00 AM 33.5°F0.8°C 30.6°F-0.8°C 89% 8.1 mph SE13.0 kmh SE 8.1 mph13.0 kmh 29.70 in1005.8 mb - 0.00 in0.0 mm 0.00 in0.0 mm
05:30 AM 32.9°F0.5°C 30.3°F-0.9°C 90% 8.1 mph ESE13.0 kmh ESE 9.2 mph14.8 kmh 29.70 in1005.8 mb - 0.00 in0.0 mm 0.00 in0.0 mm
06:00 AM 33.2°F0.7°C 30.3°F-0.9°C 89% 9.2 mph SE14.8 kmh SE 11.5 mph18.5 kmh 29.70 in1005.8 mb - 0.00 in0.0 mm 0.00 in0.0 mm
06:30 AM 34.1°F1.2°C 30.6°F-0.8°C 87% 9.2 mph ESE14.8 kmh ESE 9.2 mph14.8 kmh 29.70 in1005.8 mb - 0.00 in0.0 mm 0.00 in0.0 mm
07:00 AM 34.8°F1.6°C 31.0°F-0.6°C 86% 9.2 mph SE14.8 kmh SE 12.7 mph20.4 kmh 29.70 in1005.8 mb - 0.00 in0.0 mm 0.00 in0.0 mm
07:30 AM 34.0°F1.1°C 30.5°F-0.8°C 87% 9.2 mph SE14.8 kmh SE 11.5 mph18.5 kmh 29.71 in1006.1 mb - 0.00 in0.0 mm 0.00 in0.0 mm
08:00 AM 35.0°F1.7°C 31.0°F-0.6°C 85% 8.1 mph ESE13.0 kmh ESE 11.5 mph18.5 kmh 29.71 in1006.1 mb - 0.00 in0.0 mm 0.00 in0.0 mm
08:30 AM 35.8°F2.1°C 31.4°F-0.3°C 84% 9.2 mph SE14.8 kmh SE 12.7 mph20.4 kmh 29.70 in1005.8 mb - 0.00 in0.0 mm 0.00 in0.0 mm
09:00 AM 36.6°F2.6°C 31.9°F-0.1°C 83% 12.7 mph SE20.4 kmh SE 16.1 mph25.9 kmh 29.69 in1005.4 mb - 0.00 in0.0 mm 0.00 in0.0 mm
09:30 AM 37.0°F2.8°C 32.0°F0.0°C 82% 15.0 mph SE24.1 kmh SE 20.7 mph33.3 kmh 29.70 in1005.8 mb - 0.00 in0.0 mm 0.00 in0.0 mm
10:00 AM 37.1°F2.8°C 32.4°F0.2°C 83% 8.1 mph SE13.0 kmh SE 11.5 mph18.5 kmh 29.71 in1006.1 mb - 0.00 in0.0 mm 0.00 in0.0 mm
10:30 AM 38.3°F3.5°C 32.7°F0.4°C 80% 10.4 mph SSE16.7 kmh SSE 12.7 mph20.4 kmh 29.72 in1006.4 mb - 0.00 in0.0 mm 0.00 in0.0 mm
11:00 AM 39.5°F4.2°C 33.5°F0.8°C 79% 9.2 mph SE14.8 kmh SE 11.5 mph18.5 kmh 29.72 in1006.4 mb - 0.00 in0.0 mm 0.00 in0.0 mm
11:30 AM 40.6°F4.8°C 33.9°F1.1°C 77% 11.5 mph SSE18.5 kmh SSE 15.0 mph24.1 kmh 29.72 in1006.4 mb - 0.00 in0.0 mm 0.00 in0.0 mm
12:00 PM 41.5°F5.3°C 34.2°F1.2°C 75% 9.2 mph SE14.8 kmh SE 11.5 mph18.5 kmh 29.70 in1005.8 mb - 0.00 in0.0 mm 0.00 in0.0 mm
12:30 PM 42.8°F6.0°C 35.8°F2.1°C 76% 9.2 mph SE14.8 kmh SE 11.5 mph18.5 kmh 29.69 in1005.4 mb - 0.00 in0.0 mm 0.00 in0.0 mm
01:00 PM 43.0°F6.1°C 36.3°F2.4°C 77% 11.5 mph SE18.5 kmh SE 13.8 mph22.2 kmh 29.68 in1005.1 mb - 0.00 in0.0 mm 0.00 in0.0 mm
01:30 PM 44.6°F7.0°C 37.2°F2.9°C 75% 10.4 mph SE16.7 kmh SE 15.0 mph24.1 kmh 29.67 in1004.7 mb - 0.00 in0.0 mm 0.00 in0.0 mm
02:00 PM 44.9°F7.2°C 37.4°F3.0°C 75% 12.7 mph SSE20.4 kmh SSE 16.1 mph25.9 kmh 29.66 in1004.4 mb - 0.00 in0.0 mm 0.00 in0.0 mm
02:30 PM 44.8°F7.1°C 37.4°F3.0°C 75% 13.8 mph SE22.2 kmh SE 18.4 mph29.6 kmh 29.66 in1004.4 mb - 0.00 in0.0 mm 0.00 in0.0 mm
03:00 PM 44.5°F6.9°C 37.0°F2.8°C 75% 13.8 mph SE22.2 kmh SE 16.1 mph25.9 kmh 29.66 in1004.4 mb - 0.00 in0.0 mm 0.00 in0.0 mm
03:30 PM 44.4°F6.9°C 37.3°F2.9°C 76% 9.2 mph SE14.8 kmh SE 11.5 mph18.5 kmh 29.66 in1004.4 mb - 0.00 in0.0 mm 0.00 in0.0 mm
04:00 PM 44.3°F6.8°C 37.9°F3.3°C 78% 8.1 mph SE13.0 kmh SE 12.7 mph20.4 kmh 29.65 in1004.1 mb - 0.00 in0.0 mm 0.00 in0.0 mm
04:30 PM 44.7°F7.1°C 38.3°F3.5°C 78% 5.8 mph SE9.3 kmh SE 8.1 mph13.0 kmh 29.65 in1004.1 mb - 0.00 in0.0 mm 0.00 in0.0 mm
05:00 PM 44.4°F6.9°C 38.6°F3.7°C 80% 8.1 mph SSE13.0 kmh SSE 12.7 mph20.4 kmh 29.65 in1004.1 mb - 0.00 in0.0 mm 0.00 in0.0 mm
05:30 PM 45.1°F7.3°C 38.3°F3.5°C 77% 8.1 mph SE13.0 kmh SE 11.5 mph18.5 kmh 29.65 in1004.1 mb - 0.00 in0.0 mm 0.00 in0.0 mm
06:00 PM 44.7°F7.1°C 37.9°F3.3°C 77% 9.2 mph SE14.8 kmh SE 15.0 mph24.1 kmh 29.66 in1004.4 mb - 0.00 in0.0 mm 0.00 in0.0 mm
06:30 PM 44.0°F6.7°C 37.6°F3.1°C 78% 10.4 mph SSE16.7 kmh SSE 12.7 mph20.4 kmh 29.66 in1004.4 mb - 0.00 in0.0 mm 0.00 in0.0 mm
07:00 PM 43.7°F6.5°C 37.3°F2.9°C 78% 8.1 mph SE13.0 kmh SE 12.7 mph20.4 kmh 29.66 in1004.4 mb - 0.00 in0.0 mm 0.00 in0.0 mm
07:30 PM 43.2°F6.2°C 37.2°F2.9°C 79% 6.9 mph SE11.1 kmh SE 8.1 mph13.0 kmh 29.66 in1004.4 mb - 0.00 in0.0 mm 0.00 in0.0 mm
08:00 PM 43.1°F6.2°C 37.3°F2.9°C 80% 5.8 mph SSE9.3 kmh SSE 6.9 mph11.1 kmh 29.67 in1004.7 mb - 0.00 in0.0 mm 0.00 in0.0 mm
08:30 PM 43.8°F6.6°C 37.7°F3.2°C 79% 8.1 mph SSE13.0 kmh SSE 11.5 mph18.5 kmh 29.66 in1004.4 mb - 0.00 in0.0 mm 0.00 in0.0 mm
09:00 PM 44.8°F7.1°C 38.0°F3.3°C 77% 5.8 mph S9.3 kmh S 10.4 mph16.7 kmh 29.68 in1005.1 mb - 0.00 in0.0 mm 0.00 in0.0 mm
09:30 PM 43.5°F6.4°C 37.4°F3.0°C 79% 4.6 mph SSE7.4 kmh SSE 5.8 mph9.3 kmh 29.68 in1005.1 mb - 0.00 in0.0 mm 0.00 in0.0 mm
10:00 PM 44.2°F6.8°C 37.4°F3.0°C 77% 6.9 mph SW11.1 kmh SW 9.2 mph14.8 kmh 29.68 in1005.1 mb - 0.00 in0.0 mm 0.00 in0.0 mm
10:30 PM 44.2°F6.8°C 37.4°F3.0°C 77% 4.6 mph S7.4 kmh S 11.5 mph18.5 kmh 29.68 in1005.1 mb - 0.00 in0.0 mm 0.00 in0.0 mm
11:00 PM 43.9°F6.6°C 36.8°F2.7°C 76% 3.5 mph SSW5.6 kmh SSW 4.6 mph7.4 kmh 29.69 in1005.4 mb - 0.00 in0.0 mm 0.00 in0.0 mm
11:30 PM 43.4°F6.3°C 36.7°F2.6°C 77% 3.5 mph S5.6 kmh S 5.8 mph9.3 kmh 29.70 in1005.8 mb - 0.00 in0.0 mm 0.00 in0.0 mm